sensor_id;sensor_type;location;lat;lon;timestamp;P1;durP1;ratioP1;P2;durP2;ratioP2
14306;SDS011;7237;49.500;11.400;2023-12-20T00:02:15;4.43;;;3.40;;
14306;SDS011;7237;49.500;11.400;2023-12-20T00:04:42;3.87;;;2.93;;
14306;SDS011;7237;49.500;11.400;2023-12-20T00:07:09;3.57;;;3.27;;
14306;SDS011;7237;49.500;11.400;2023-12-20T00:09:36;3.50;;;3.20;;
14306;SDS011;7237;49.500;11.400;2023-12-20T00:12:03;4.30;;;3.90;;
14306;SDS011;7237;49.500;11.400;2023-12-20T00:14:32;4.30;;;3.43;;
14306;SDS011;7237;49.500;11.400;2023-12-20T00:16:59;4.23;;;3.13;;
14306;SDS011;7237;49.500;11.400;2023-12-20T00:19:26;3.97;;;3.47;;
14306;SDS011;7237;49.500;11.400;2023-12-20T00:21:53;4.13;;;3.63;;
14306;SDS011;7237;49.500;11.400;2023-12-20T00:24:20;4.20;;;3.53;;
14306;SDS011;7237;49.500;11.400;2023-12-20T00:26:47;4.80;;;3.70;;
14306;SDS011;7237;49.500;11.400;2023-12-20T00:29:14;4.37;;;3.50;;
14306;SDS011;7237;49.500;11.400;2023-12-20T00:31:42;3.90;;;3.50;;
14306;SDS011;7237;49.500;11.400;2023-12-20T00:34:09;3.60;;;3.30;;
14306;SDS011;7237;49.500;11.400;2023-12-20T00:36:36;3.97;;;3.57;;
14306;SDS011;7237;49.500;11.400;2023-12-20T00:39:04;4.43;;;4.03;;
14306;SDS011;7237;49.500;11.400;2023-12-20T00:41:32;4.20;;;3.57;;
14306;SDS011;7237;49.500;11.400;2023-12-20T00:43:59;4.33;;;3.43;;
14306;SDS011;7237;49.500;11.400;2023-12-20T00:46:26;5.10;;;4.07;;
14306;SDS011;7237;49.500;11.400;2023-12-20T00:48:54;4.67;;;3.70;;
14306;SDS011;7237;49.500;11.400;2023-12-20T00:51:22;4.20;;;3.83;;
14306;SDS011;7237;49.500;11.400;2023-12-20T00:53:49;7.43;;;4.30;;
14306;SDS011;7237;49.500;11.400;2023-12-20T00:56:19;4.07;;;3.47;;
14306;SDS011;7237;49.500;11.400;2023-12-20T00:58:46;3.93;;;3.63;;
14306;SDS011;7237;49.500;11.400;2023-12-20T01:01:13;3.60;;;3.30;;
14306;SDS011;7237;49.500;11.400;2023-12-20T01:03:40;4.50;;;4.10;;
14306;SDS011;7237;49.500;11.400;2023-12-20T01:06:09;4.00;;;3.60;;
14306;SDS011;7237;49.500;11.400;2023-12-20T01:08:37;3.73;;;3.43;;
14306;SDS011;7237;49.500;11.400;2023-12-20T01:11:04;4.37;;;3.60;;
14306;SDS011;7237;49.500;11.400;2023-12-20T01:13:31;5.37;;;3.97;;
14306;SDS011;7237;49.500;11.400;2023-12-20T01:15:58;4.57;;;4.07;;
14306;SDS011;7237;49.500;11.400;2023-12-20T01:18:25;4.70;;;3.43;;
14306;SDS011;7237;49.500;11.400;2023-12-20T01:20:52;5.27;;;3.33;;
14306;SDS011;7237;49.500;11.400;2023-12-20T01:23:20;4.03;;;3.63;;
14306;SDS011;7237;49.500;11.400;2023-12-20T01:25:47;6.30;;;3.37;;
14306;SDS011;7237;49.500;11.400;2023-12-20T01:28:15;4.00;;;3.10;;
14306;SDS011;7237;49.500;11.400;2023-12-20T01:30:42;3.73;;;3.10;;
14306;SDS011;7237;49.500;11.400;2023-12-20T01:33:09;3.70;;;3.30;;
14306;SDS011;7237;49.500;11.400;2023-12-20T01:35:36;5.30;;;3.33;;
14306;SDS011;7237;49.500;11.400;2023-12-20T01:38:03;3.67;;;2.67;;
14306;SDS011;7237;49.500;11.400;2023-12-20T01:40:32;2.50;;;2.30;;
14306;SDS011;7237;49.500;11.400;2023-12-20T01:42:59;2.90;;;2.20;;
14306;SDS011;7237;49.500;11.400;2023-12-20T01:45:26;3.37;;;2.37;;
14306;SDS011;7237;49.500;11.400;2023-12-20T01:47:53;2.30;;;2.10;;
14306;SDS011;7237;49.500;11.400;2023-12-20T01:50:21;1.93;;;1.83;;
14306;SDS011;7237;49.500;11.400;2023-12-20T01:52:48;3.17;;;2.03;;
14306;SDS011;7237;49.500;11.400;2023-12-20T01:55:17;2.03;;;1.83;;
14306;SDS011;7237;49.500;11.400;2023-12-20T01:57:45;3.77;;;1.90;;
14306;SDS011;7237;49.500;11.400;2023-12-20T02:00:13;1.70;;;1.60;;
14306;SDS011;7237;49.500;11.400;2023-12-20T02:02:41;4.63;;;1.80;;
14306;SDS011;7237;49.500;11.400;2023-12-20T02:05:08;2.00;;;1.80;;
14306;SDS011;7237;49.500;11.400;2023-12-20T02:07:35;2.03;;;1.53;;
14306;SDS011;7237;49.500;11.400;2023-12-20T02:10:03;2.50;;;1.33;;
14306;SDS011;7237;49.500;11.400;2023-12-20T02:12:30;2.07;;;1.63;;
14306;SDS011;7237;49.500;11.400;2023-12-20T02:14:58;3.33;;;1.50;;
14306;SDS011;7237;49.500;11.400;2023-12-20T02:17:25;1.37;;;1.20;;
14306;SDS011;7237;49.500;11.400;2023-12-20T02:19:53;1.40;;;1.30;;
14306;SDS011;7237;49.500;11.400;2023-12-20T02:22:21;1.30;;;1.20;;
14306;SDS011;7237;49.500;11.400;2023-12-20T02:24:48;1.40;;;1.30;;
14306;SDS011;7237;49.500;11.400;2023-12-20T02:27:15;1.90;;;1.30;;
14306;SDS011;7237;49.500;11.400;2023-12-20T02:29:44;1.90;;;1.00;;
14306;SDS011;7237;49.500;11.400;2023-12-20T02:32:13;0.77;;;0.77;;
14306;SDS011;7237;49.500;11.400;2023-12-20T02:34:40;1.20;;;1.10;;
14306;SDS011;7237;49.500;11.400;2023-12-20T02:37:07;0.90;;;0.87;;
14306;SDS011;7237;49.500;11.400;2023-12-20T02:39:36;0.70;;;0.70;;
14306;SDS011;7237;49.500;11.400;2023-12-20T02:42:03;1.10;;;1.00;;
14306;SDS011;7237;49.500;11.400;2023-12-20T02:44:30;0.93;;;0.70;;
14306;SDS011;7237;49.500;11.400;2023-12-20T02:46:57;0.80;;;0.80;;
14306;SDS011;7237;49.500;11.400;2023-12-20T02:49:24;0.90;;;0.90;;
14306;SDS011;7237;49.500;11.400;2023-12-20T02:51:51;0.60;;;0.60;;
14306;SDS011;7237;49.500;11.400;2023-12-20T02:54:18;0.90;;;0.60;;
14306;SDS011;7237;49.500;11.400;2023-12-20T02:56:47;0.53;;;0.53;;
14306;SDS011;7237;49.500;11.400;2023-12-20T02:59:14;0.83;;;0.40;;
14306;SDS011;7237;49.500;11.400;2023-12-20T03:01:41;0.60;;;0.60;;
14306;SDS011;7237;49.500;11.400;2023-12-20T03:04:09;0.53;;;0.53;;
14306;SDS011;7237;49.500;11.400;2023-12-20T03:06:36;0.47;;;0.47;;
14306;SDS011;7237;49.500;11.400;2023-12-20T03:09:03;0.60;;;0.60;;
14306;SDS011;7237;49.500;11.400;2023-12-20T03:11:30;0.60;;;0.60;;
14306;SDS011;7237;49.500;11.400;2023-12-20T03:13:59;0.60;;;0.60;;
14306;SDS011;7237;49.500;11.400;2023-12-20T03:16:26;0.40;;;0.40;;
14306;SDS011;7237;49.500;11.400;2023-12-20T03:18:53;0.30;;;0.30;;
14306;SDS011;7237;49.500;11.400;2023-12-20T03:21:20;0.47;;;0.47;;
14306;SDS011;7237;49.500;11.400;2023-12-20T03:23:47;0.43;;;0.43;;
14306;SDS011;7237;49.500;11.400;2023-12-20T03:26:14;0.50;;;0.50;;
14306;SDS011;7237;49.500;11.400;2023-12-20T03:28:41;0.50;;;0.50;;
14306;SDS011;7237;49.500;11.400;2023-12-20T03:31:10;1.43;;;0.40;;
14306;SDS011;7237;49.500;11.400;2023-12-20T03:33:37;0.63;;;0.63;;
14306;SDS011;7237;49.500;11.400;2023-12-20T03:36:07;0.40;;;0.40;;
14306;SDS011;7237;49.500;11.400;2023-12-20T03:38:34;0.30;;;0.30;;
14306;SDS011;7237;49.500;11.400;2023-12-20T03:41:01;0.50;;;0.50;;
14306;SDS011;7237;49.500;11.400;2023-12-20T03:43:28;0.20;;;0.20;;
14306;SDS011;7237;49.500;11.400;2023-12-20T03:45:56;0.40;;;0.40;;
14306;SDS011;7237;49.500;11.400;2023-12-20T03:48:25;0.70;;;0.40;;
14306;SDS011;7237;49.500;11.400;2023-12-20T03:50:52;0.60;;;0.50;;
14306;SDS011;7237;49.500;11.400;2023-12-20T03:53:19;0.67;;;0.47;;
14306;SDS011;7237;49.500;11.400;2023-12-20T03:55:46;0.70;;;0.70;;
14306;SDS011;7237;49.500;11.400;2023-12-20T03:58:13;0.80;;;0.73;;
14306;SDS011;7237;49.500;11.400;2023-12-20T04:00:40;0.40;;;0.40;;
14306;SDS011;7237;49.500;11.400;2023-12-20T04:03:07;0.40;;;0.40;;
14306;SDS011;7237;49.500;11.400;2023-12-20T04:05:35;0.50;;;0.50;;
14306;SDS011;7237;49.500;11.400;2023-12-20T04:08:03;0.87;;;0.80;;
14306;SDS011;7237;49.500;11.400;2023-12-20T04:10:30;0.50;;;0.50;;
14306;SDS011;7237;49.500;11.400;2023-12-20T04:12:57;0.40;;;0.40;;
14306;SDS011;7237;49.500;11.400;2023-12-20T04:15:24;0.60;;;0.60;;
14306;SDS011;7237;49.500;11.400;2023-12-20T04:17:51;0.33;;;0.33;;
14306;SDS011;7237;49.500;11.400;2023-12-20T04:20:18;0.57;;;0.50;;
14306;SDS011;7237;49.500;11.400;2023-12-20T04:22:46;0.37;;;0.37;;
14306;SDS011;7237;49.500;11.400;2023-12-20T04:25:13;0.47;;;0.47;;
14306;SDS011;7237;49.500;11.400;2023-12-20T04:27:41;0.57;;;0.57;;
14306;SDS011;7237;49.500;11.400;2023-12-20T04:30:08;0.60;;;0.60;;
14306;SDS011;7237;49.500;11.400;2023-12-20T04:32:35;0.60;;;0.60;;
14306;SDS011;7237;49.500;11.400;2023-12-20T04:35:02;0.57;;;0.57;;
14306;SDS011;7237;49.500;11.400;2023-12-20T04:37:29;0.57;;;0.50;;
14306;SDS011;7237;49.500;11.400;2023-12-20T04:39:58;0.60;;;0.60;;
14306;SDS011;7237;49.500;11.400;2023-12-20T04:42:25;0.40;;;0.40;;
14306;SDS011;7237;49.500;11.400;2023-12-20T04:44:52;0.60;;;0.60;;
14306;SDS011;7237;49.500;11.400;2023-12-20T04:47:19;0.53;;;0.53;;
14306;SDS011;7237;49.500;11.400;2023-12-20T04:49:46;1.33;;;0.70;;
14306;SDS011;7237;49.500;11.400;2023-12-20T04:52:13;0.67;;;0.67;;
14306;SDS011;7237;49.500;11.400;2023-12-20T04:54:41;0.53;;;0.47;;
14306;SDS011;7237;49.500;11.400;2023-12-20T04:57:09;0.60;;;0.60;;
14306;SDS011;7237;49.500;11.400;2023-12-20T04:59:36;0.70;;;0.70;;
14306;SDS011;7237;49.500;11.400;2023-12-20T05:02:03;0.60;;;0.60;;
14306;SDS011;7237;49.500;11.400;2023-12-20T05:04:30;0.70;;;0.70;;
14306;SDS011;7237;49.500;11.400;2023-12-20T05:06:57;1.00;;;1.00;;
14306;SDS011;7237;49.500;11.400;2023-12-20T05:09:24;0.50;;;0.50;;
14306;SDS011;7237;49.500;11.400;2023-12-20T05:11:51;1.47;;;0.70;;
14306;SDS011;7237;49.500;11.400;2023-12-20T05:14:20;0.70;;;0.70;;
14306;SDS011;7237;49.500;11.400;2023-12-20T05:16:47;0.70;;;0.70;;
14306;SDS011;7237;49.500;11.400;2023-12-20T05:19:14;0.80;;;0.80;;
14306;SDS011;7237;49.500;11.400;2023-12-20T05:21:41;0.40;;;0.40;;
14306;SDS011;7237;49.500;11.400;2023-12-20T05:24:08;0.57;;;0.57;;
14306;SDS011;7237;49.500;11.400;2023-12-20T05:26:35;2.00;;;0.80;;
14306;SDS011;7237;49.500;11.400;2023-12-20T05:29:02;0.90;;;0.90;;
14306;SDS011;7237;49.500;11.400;2023-12-20T05:31:30;1.07;;;0.97;;
14306;SDS011;7237;49.500;11.400;2023-12-20T05:33:58;0.77;;;0.77;;
14306;SDS011;7237;49.500;11.400;2023-12-20T05:36:25;0.60;;;0.60;;
14306;SDS011;7237;49.500;11.400;2023-12-20T05:38:52;1.10;;;0.90;;
14306;SDS011;7237;49.500;11.400;2023-12-20T05:41:19;1.70;;;1.03;;
14306;SDS011;7237;49.500;11.400;2023-12-20T05:43:46;0.87;;;0.87;;
14306;SDS011;7237;49.500;11.400;2023-12-20T05:46:13;0.70;;;0.70;;
14306;SDS011;7237;49.500;11.400;2023-12-20T05:48:42;0.63;;;0.63;;
14306;SDS011;7237;49.500;11.400;2023-12-20T05:51:11;0.80;;;0.80;;
14306;SDS011;7237;49.500;11.400;2023-12-20T05:53:38;0.80;;;0.80;;
14306;SDS011;7237;49.500;11.400;2023-12-20T05:56:05;1.10;;;1.10;;
14306;SDS011;7237;49.500;11.400;2023-12-20T05:58:32;0.80;;;0.80;;
14306;SDS011;7237;49.500;11.400;2023-12-20T06:01:00;1.13;;;1.03;;
14306;SDS011;7237;49.500;11.400;2023-12-20T06:03:27;1.30;;;0.97;;
14306;SDS011;7237;49.500;11.400;2023-12-20T06:05:55;0.90;;;0.90;;
14306;SDS011;7237;49.500;11.400;2023-12-20T06:08:22;1.00;;;0.90;;
14306;SDS011;7237;49.500;11.400;2023-12-20T06:10:49;0.90;;;0.90;;
14306;SDS011;7237;49.500;11.400;2023-12-20T06:13:16;1.40;;;1.20;;
14306;SDS011;7237;49.500;11.400;2023-12-20T06:15:43;1.57;;;1.40;;
14306;SDS011;7237;49.500;11.400;2023-12-20T06:18:10;2.20;;;2.00;;
14306;SDS011;7237;49.500;11.400;2023-12-20T06:20:37;2.73;;;1.67;;
14306;SDS011;7237;49.500;11.400;2023-12-20T06:23:08;2.37;;;1.67;;
14306;SDS011;7237;49.500;11.400;2023-12-20T06:25:35;1.73;;;1.33;;
14306;SDS011;7237;49.500;11.400;2023-12-20T06:28:02;1.10;;;1.10;;
14306;SDS011;7237;49.500;11.400;2023-12-20T06:30:29;1.40;;;1.30;;
14306;SDS011;7237;49.500;11.400;2023-12-20T06:32:57;1.43;;;1.33;;
14306;SDS011;7237;49.500;11.400;2023-12-20T06:35:24;15.13;;;8.37;;
14306;SDS011;7237;49.500;11.400;2023-12-20T06:37:52;1.30;;;1.20;;
14306;SDS011;7237;49.500;11.400;2023-12-20T06:40:20;1.40;;;1.30;;
14306;SDS011;7237;49.500;11.400;2023-12-20T06:42:47;1.60;;;1.37;;
14306;SDS011;7237;49.500;11.400;2023-12-20T06:45:14;1.50;;;1.40;;
14306;SDS011;7237;49.500;11.400;2023-12-20T06:47:41;1.67;;;1.57;;
14306;SDS011;7237;49.500;11.400;2023-12-20T06:50:08;1.23;;;1.13;;
14306;SDS011;7237;49.500;11.400;2023-12-20T06:52:35;1.40;;;1.30;;
14306;SDS011;7237;49.500;11.400;2023-12-20T06:55:02;1.27;;;1.17;;
14306;SDS011;7237;49.500;11.400;2023-12-20T06:57:31;1.50;;;1.40;;
14306;SDS011;7237;49.500;11.400;2023-12-20T06:59:58;1.97;;;1.40;;
14306;SDS011;7237;49.500;11.400;2023-12-20T07:02:25;1.30;;;1.20;;
14306;SDS011;7237;49.500;11.400;2023-12-20T07:04:55;1.30;;;1.20;;
14306;SDS011;7237;49.500;11.400;2023-12-20T07:07:22;1.20;;;1.10;;
14306;SDS011;7237;49.500;11.400;2023-12-20T07:09:49;1.20;;;1.20;;
14306;SDS011;7237;49.500;11.400;2023-12-20T07:12:16;1.40;;;1.30;;
14306;SDS011;7237;49.500;11.400;2023-12-20T07:14:45;1.60;;;1.50;;
14306;SDS011;7237;49.500;11.400;2023-12-20T07:17:12;1.90;;;1.80;;
14306;SDS011;7237;49.500;11.400;2023-12-20T07:19:40;1.97;;;1.80;;
14306;SDS011;7237;49.500;11.400;2023-12-20T07:22:07;1.63;;;1.53;;
14306;SDS011;7237;49.500;11.400;2023-12-20T07:24:35;1.77;;;1.67;;
14306;SDS011;7237;49.500;11.400;2023-12-20T07:27:02;1.97;;;1.83;;
14306;SDS011;7237;49.500;11.400;2023-12-20T07:29:29;3.07;;;1.90;;
14306;SDS011;7237;49.500;11.400;2023-12-20T07:31:57;2.27;;;2.03;;
14306;SDS011;7237;49.500;11.400;2023-12-20T07:34:24;2.03;;;1.87;;
14306;SDS011;7237;49.500;11.400;2023-12-20T07:36:51;2.13;;;1.93;;
14306;SDS011;7237;49.500;11.400;2023-12-20T07:39:19;2.43;;;2.23;;
14306;SDS011;7237;49.500;11.400;2023-12-20T07:41:46;2.67;;;2.17;;
14306;SDS011;7237;49.500;11.400;2023-12-20T07:44:13;2.67;;;2.07;;
14306;SDS011;7237;49.500;11.400;2023-12-20T07:46:40;2.57;;;2.37;;
14306;SDS011;7237;49.500;11.400;2023-12-20T07:49:09;2.10;;;2.00;;
14306;SDS011;7237;49.500;11.400;2023-12-20T07:51:36;3.60;;;2.27;;
14306;SDS011;7237;49.500;11.400;2023-12-20T07:54:03;2.27;;;2.07;;
14306;SDS011;7237;49.500;11.400;2023-12-20T07:56:30;2.23;;;2.13;;
14306;SDS011;7237;49.500;11.400;2023-12-20T07:58:57;2.37;;;2.17;;
14306;SDS011;7237;49.500;11.400;2023-12-20T08:01:24;2.27;;;2.07;;
14306;SDS011;7237;49.500;11.400;2023-12-20T08:03:51;2.47;;;2.27;;
14306;SDS011;7237;49.500;11.400;2023-12-20T08:06:21;2.43;;;2.33;;
14306;SDS011;7237;49.500;11.400;2023-12-20T08:08:48;2.00;;;1.90;;
14306;SDS011;7237;49.500;11.400;2023-12-20T08:11:15;2.30;;;2.10;;
14306;SDS011;7237;49.500;11.400;2023-12-20T08:13:42;2.60;;;2.13;;
14306;SDS011;7237;49.500;11.400;2023-12-20T08:16:10;2.10;;;2.00;;
14306;SDS011;7237;49.500;11.400;2023-12-20T08:18:38;3.67;;;2.10;;
14306;SDS011;7237;49.500;11.400;2023-12-20T08:21:05;2.20;;;2.10;;
14306;SDS011;7237;49.500;11.400;2023-12-20T08:23:34;2.20;;;2.00;;
14306;SDS011;7237;49.500;11.400;2023-12-20T08:26:03;2.37;;;2.27;;
14306;SDS011;7237;49.500;11.400;2023-12-20T08:28:30;2.50;;;2.30;;
14306;SDS011;7237;49.500;11.400;2023-12-20T08:30:57;2.00;;;1.90;;
14306;SDS011;7237;49.500;11.400;2023-12-20T08:33:24;2.50;;;2.30;;
14306;SDS011;7237;49.500;11.400;2023-12-20T08:35:51;2.30;;;2.10;;
14306;SDS011;7237;49.500;11.400;2023-12-20T08:38:18;2.30;;;2.13;;
14306;SDS011;7237;49.500;11.400;2023-12-20T08:40:47;2.70;;;2.00;;
14306;SDS011;7237;49.500;11.400;2023-12-20T08:43:14;2.30;;;2.10;;
14306;SDS011;7237;49.500;11.400;2023-12-20T08:45:40;2.10;;;2.00;;
14306;SDS011;7237;49.500;11.400;2023-12-20T08:48:07;2.00;;;1.90;;
14306;SDS011;7237;49.500;11.400;2023-12-20T08:50:34;2.13;;;1.93;;
14306;SDS011;7237;49.500;11.400;2023-12-20T08:53:02;2.10;;;1.90;;
14306;SDS011;7237;49.500;11.400;2023-12-20T08:55:29;2.23;;;2.00;;
14306;SDS011;7237;49.500;11.400;2023-12-20T08:57:57;2.27;;;2.07;;
14306;SDS011;7237;49.500;11.400;2023-12-20T09:00:24;2.60;;;2.40;;
14306;SDS011;7237;49.500;11.400;2023-12-20T09:02:52;4.77;;;2.73;;
14306;SDS011;7237;49.500;11.400;2023-12-20T09:05:19;2.77;;;2.47;;
14306;SDS011;7237;49.500;11.400;2023-12-20T09:07:47;3.00;;;2.00;;
14306;SDS011;7237;49.500;11.400;2023-12-20T09:10:14;2.00;;;1.90;;
14306;SDS011;7237;49.500;11.400;2023-12-20T09:12:41;2.67;;;2.40;;
14306;SDS011;7237;49.500;11.400;2023-12-20T09:15:09;3.50;;;2.23;;
14306;SDS011;7237;49.500;11.400;2023-12-20T09:17:37;3.33;;;2.10;;
14306;SDS011;7237;49.500;11.400;2023-12-20T09:20:04;3.77;;;2.80;;
14306;SDS011;7237;49.500;11.400;2023-12-20T09:22:32;2.70;;;2.50;;
14306;SDS011;7237;49.500;11.400;2023-12-20T09:24:59;2.20;;;2.00;;
14306;SDS011;7237;49.500;11.400;2023-12-20T09:27:27;3.77;;;2.20;;
14306;SDS011;7237;49.500;11.400;2023-12-20T09:29:54;2.50;;;2.30;;
14306;SDS011;7237;49.500;11.400;2023-12-20T09:32:22;2.00;;;1.90;;
14306;SDS011;7237;49.500;11.400;2023-12-20T09:34:49;2.33;;;2.13;;
14306;SDS011;7237;49.500;11.400;2023-12-20T09:37:16;2.50;;;2.30;;
14306;SDS011;7237;49.500;11.400;2023-12-20T09:39:43;2.13;;;2.03;;
14306;SDS011;7237;49.500;11.400;2023-12-20T09:42:11;2.30;;;2.10;;
14306;SDS011;7237;49.500;11.400;2023-12-20T09:44:38;4.33;;;2.60;;
14306;SDS011;7237;49.500;11.400;2023-12-20T09:47:07;2.63;;;2.00;;
14306;SDS011;7237;49.500;11.400;2023-12-20T09:49:36;2.73;;;2.10;;
14306;SDS011;7237;49.500;11.400;2023-12-20T09:52:03;1.73;;;1.63;;
14306;SDS011;7237;49.500;11.400;2023-12-20T09:54:31;1.80;;;1.70;;
14306;SDS011;7237;49.500;11.400;2023-12-20T09:56:58;2.20;;;1.93;;
14306;SDS011;7237;49.500;11.400;2023-12-20T09:59:25;2.37;;;1.77;;
14306;SDS011;7237;49.500;11.400;2023-12-20T10:01:53;2.07;;;1.80;;
14306;SDS011;7237;49.500;11.400;2023-12-20T10:04:21;1.90;;;1.80;;
14306;SDS011;7237;49.500;11.400;2023-12-20T10:06:49;3.00;;;2.10;;
14306;SDS011;7237;49.500;11.400;2023-12-20T10:09:17;1.73;;;1.60;;
14306;SDS011;7237;49.500;11.400;2023-12-20T10:11:44;4.10;;;1.80;;
14306;SDS011;7237;49.500;11.400;2023-12-20T10:14:11;1.97;;;1.73;;
14306;SDS011;7237;49.500;11.400;2023-12-20T10:16:39;3.10;;;2.03;;
14306;SDS011;7237;49.500;11.400;2023-12-20T10:19:07;2.40;;;1.90;;
14306;SDS011;7237;49.500;11.400;2023-12-20T10:21:34;3.23;;;1.70;;
14306;SDS011;7237;49.500;11.400;2023-12-20T10:24:03;4.07;;;2.07;;
14306;SDS011;7237;49.500;11.400;2023-12-20T10:26:30;3.20;;;1.80;;
14306;SDS011;7237;49.500;11.400;2023-12-20T10:28:59;2.53;;;1.80;;
14306;SDS011;7237;49.500;11.400;2023-12-20T10:31:29;2.90;;;1.70;;
14306;SDS011;7237;49.500;11.400;2023-12-20T10:33:57;2.87;;;1.70;;
14306;SDS011;7237;49.500;11.400;2023-12-20T10:36:25;2.70;;;1.67;;
14306;SDS011;7237;49.500;11.400;2023-12-20T10:38:53;2.77;;;1.90;;
14306;SDS011;7237;49.500;11.400;2023-12-20T10:41:23;4.50;;;1.87;;
14306;SDS011;7237;49.500;11.400;2023-12-20T10:43:51;3.30;;;1.60;;
14306;SDS011;7237;49.500;11.400;2023-12-20T10:46:18;2.97;;;1.60;;
14306;SDS011;7237;49.500;11.400;2023-12-20T10:48:46;2.57;;;1.83;;
14306;SDS011;7237;49.500;11.400;2023-12-20T10:51:14;1.93;;;1.60;;
14306;SDS011;7237;49.500;11.400;2023-12-20T10:53:45;2.93;;;1.60;;
14306;SDS011;7237;49.500;11.400;2023-12-20T10:56:15;3.67;;;1.43;;
14306;SDS011;7237;49.500;11.400;2023-12-20T10:58:44;2.57;;;1.60;;
14306;SDS011;7237;49.500;11.400;2023-12-20T11:01:12;2.80;;;1.17;;
14306;SDS011;7237;49.500;11.400;2023-12-20T11:03:39;2.07;;;1.50;;
14306;SDS011;7237;49.500;11.400;2023-12-20T11:06:10;3.90;;;2.00;;
14306;SDS011;7237;49.500;11.400;2023-12-20T11:08:42;8.50;;;1.80;;
14306;SDS011;7237;49.500;11.400;2023-12-20T11:11:12;4.63;;;1.97;;
14306;SDS011;7237;49.500;11.400;2023-12-20T11:13:41;5.53;;;2.85;;
14306;SDS011;7237;49.500;11.400;2023-12-20T11:16:11;4.47;;;2.07;;
14306;SDS011;7237;49.500;11.400;2023-12-20T11:18:39;4.20;;;2.50;;
14306;SDS011;7237;49.500;11.400;2023-12-20T11:21:07;3.17;;;1.70;;
14306;SDS011;7237;49.500;11.400;2023-12-20T11:23:34;3.03;;;1.67;;
14306;SDS011;7237;49.500;11.400;2023-12-20T11:26:02;3.83;;;1.60;;
14306;SDS011;7237;49.500;11.400;2023-12-20T11:28:29;7.67;;;1.83;;
14306;SDS011;7237;49.500;11.400;2023-12-20T11:30:56;5.13;;;2.07;;
14306;SDS011;7237;49.500;11.400;2023-12-20T11:33:26;1.83;;;1.40;;
14306;SDS011;7237;49.500;11.400;2023-12-20T11:35:55;3.57;;;1.63;;
14306;SDS011;7237;49.500;11.400;2023-12-20T11:38:22;3.80;;;1.60;;
14306;SDS011;7237;49.500;11.400;2023-12-20T11:40:49;2.47;;;1.77;;
14306;SDS011;7237;49.500;11.400;2023-12-20T11:43:29;2.83;;;1.20;;
14306;SDS011;7237;49.500;11.400;2023-12-20T11:46:01;4.00;;;1.60;;
14306;SDS011;7237;49.500;11.400;2023-12-20T11:48:31;1.63;;;1.20;;
14306;SDS011;7237;49.500;11.400;2023-12-20T11:51:01;3.65;;;1.63;;
14306;SDS011;7237;49.500;11.400;2023-12-20T11:53:29;2.97;;;1.60;;
14306;SDS011;7237;49.500;11.400;2023-12-20T11:55:59;4.63;;;1.33;;
14306;SDS011;7237;49.500;11.400;2023-12-20T11:58:29;4.47;;;1.40;;
14306;SDS011;7237;49.500;11.400;2023-12-20T12:00:58;3.90;;;1.40;;
14306;SDS011;7237;49.500;11.400;2023-12-20T12:03:30;4.17;;;1.70;;
14306;SDS011;7237;49.500;11.400;2023-12-20T12:06:04;1.83;;;1.13;;
14306;SDS011;7237;49.500;11.400;2023-12-20T12:08:38;4.03;;;1.27;;
14306;SDS011;7237;49.500;11.400;2023-12-20T12:11:07;2.40;;;1.33;;
14306;SDS011;7237;49.500;11.400;2023-12-20T12:13:34;4.50;;;1.90;;
14306;SDS011;7237;49.500;11.400;2023-12-20T12:16:02;4.17;;;1.47;;
14306;SDS011;7237;49.500;11.400;2023-12-20T12:18:30;2.80;;;1.33;;
14306;SDS011;7237;49.500;11.400;2023-12-20T12:21:00;2.83;;;1.30;;
14306;SDS011;7237;49.500;11.400;2023-12-20T12:23:28;5.20;;;1.47;;
14306;SDS011;7237;49.500;11.400;2023-12-20T12:25:55;4.27;;;1.30;;
14306;SDS011;7237;49.500;11.400;2023-12-20T12:28:25;1.40;;;1.30;;
14306;SDS011;7237;49.500;11.400;2023-12-20T12:30:56;3.50;;;1.20;;
14306;SDS011;7237;49.500;11.400;2023-12-20T12:33:24;2.60;;;1.30;;
14306;SDS011;7237;49.500;11.400;2023-12-20T12:35:53;2.63;;;1.37;;
14306;SDS011;7237;49.500;11.400;2023-12-20T12:38:20;1.60;;;1.07;;
14306;SDS011;7237;49.500;11.400;2023-12-20T12:40:47;2.63;;;1.40;;
14306;SDS011;7237;49.500;11.400;2023-12-20T12:43:14;3.80;;;1.90;;
14306;SDS011;7237;49.500;11.400;2023-12-20T12:45:41;6.33;;;1.80;;
14306;SDS011;7237;49.500;11.400;2023-12-20T12:48:08;3.57;;;1.73;;
14306;SDS011;7237;49.500;11.400;2023-12-20T12:50:35;3.00;;;1.30;;
14306;SDS011;7237;49.500;11.400;2023-12-20T12:53:04;3.40;;;1.60;;
14306;SDS011;7237;49.500;11.400;2023-12-20T12:55:31;4.40;;;1.70;;
14306;SDS011;7237;49.500;11.400;2023-12-20T12:57:58;5.33;;;1.83;;
14306;SDS011;7237;49.500;11.400;2023-12-20T13:00:25;2.97;;;1.33;;
14306;SDS011;7237;49.500;11.400;2023-12-20T13:02:52;2.40;;;1.80;;
14306;SDS011;7237;49.500;11.400;2023-12-20T13:05:19;3.37;;;1.40;;
14306;SDS011;7237;49.500;11.400;2023-12-20T13:07:46;1.47;;;1.20;;
14306;SDS011;7237;49.500;11.400;2023-12-20T13:10:15;3.10;;;1.50;;
14306;SDS011;7237;49.500;11.400;2023-12-20T13:12:42;3.77;;;1.70;;
14306;SDS011;7237;49.500;11.400;2023-12-20T13:15:09;3.47;;;1.27;;
14306;SDS011;7237;49.500;11.400;2023-12-20T13:17:36;4.97;;;1.60;;
14306;SDS011;7237;49.500;11.400;2023-12-20T13:20:05;3.17;;;1.50;;
14306;SDS011;7237;49.500;11.400;2023-12-20T13:22:32;1.70;;;1.00;;
14306;SDS011;7237;49.500;11.400;2023-12-20T13:25:00;4.53;;;1.63;;
14306;SDS011;7237;49.500;11.400;2023-12-20T13:27:29;2.73;;;1.43;;
14306;SDS011;7237;49.500;11.400;2023-12-20T13:29:57;2.77;;;1.40;;
14306;SDS011;7237;49.500;11.400;2023-12-20T13:32:24;2.43;;;1.10;;
14306;SDS011;7237;49.500;11.400;2023-12-20T13:34:51;2.27;;;1.70;;
14306;SDS011;7237;49.500;11.400;2023-12-20T13:37:18;3.47;;;1.80;;
14306;SDS011;7237;49.500;11.400;2023-12-20T13:39:46;5.30;;;2.73;;
14306;SDS011;7237;49.500;11.400;2023-12-20T13:42:13;2.67;;;2.33;;
14306;SDS011;7237;49.500;11.400;2023-12-20T13:44:41;2.70;;;2.27;;
14306;SDS011;7237;49.500;11.400;2023-12-20T13:47:09;5.07;;;3.33;;
14306;SDS011;7237;49.500;11.400;2023-12-20T13:49:36;9.33;;;7.50;;
14306;SDS011;7237;49.500;11.400;2023-12-20T13:52:03;2.73;;;1.63;;
14306;SDS011;7237;49.500;11.400;2023-12-20T13:54:30;2.27;;;1.40;;
14306;SDS011;7237;49.500;11.400;2023-12-20T13:56:57;3.57;;;1.10;;
14306;SDS011;7237;49.500;11.400;2023-12-20T13:59:24;2.77;;;1.10;;
14306;SDS011;7237;49.500;11.400;2023-12-20T14:01:53;2.57;;;1.40;;
14306;SDS011;7237;49.500;11.400;2023-12-20T14:04:22;3.20;;;1.70;;
14306;SDS011;7237;49.500;11.400;2023-12-20T14:06:49;4.33;;;1.67;;
14306;SDS011;7237;49.500;11.400;2023-12-20T14:09:16;5.17;;;1.97;;
14306;SDS011;7237;49.500;11.400;2023-12-20T14:11:43;2.13;;;1.43;;
14306;SDS011;7237;49.500;11.400;2023-12-20T14:14:11;2.50;;;1.47;;
14306;SDS011;7237;49.500;11.400;2023-12-20T14:16:38;3.93;;;2.43;;
14306;SDS011;7237;49.500;11.400;2023-12-20T14:19:06;5.50;;;2.60;;
14306;SDS011;7237;49.500;11.400;2023-12-20T14:21:34;4.50;;;2.37;;
14306;SDS011;7237;49.500;11.400;2023-12-20T14:24:01;5.40;;;2.00;;
14306;SDS011;7237;49.500;11.400;2023-12-20T14:26:29;3.27;;;2.00;;
14306;SDS011;7237;49.500;11.400;2023-12-20T14:28:56;6.33;;;2.83;;
14306;SDS011;7237;49.500;11.400;2023-12-20T14:31:23;3.87;;;2.07;;
14306;SDS011;7237;49.500;11.400;2023-12-20T14:33:50;4.87;;;1.50;;
14306;SDS011;7237;49.500;11.400;2023-12-20T14:36:21;3.37;;;1.90;;
14306;SDS011;7237;49.500;11.400;2023-12-20T14:38:48;4.03;;;2.20;;
14306;SDS011;7237;49.500;11.400;2023-12-20T14:41:16;5.53;;;2.60;;
14306;SDS011;7237;49.500;11.400;2023-12-20T14:43:44;7.07;;;3.43;;
14306;SDS011;7237;49.500;11.400;2023-12-20T14:46:11;5.73;;;3.00;;
14306;SDS011;7237;49.500;11.400;2023-12-20T14:48:40;3.87;;;1.70;;
14306;SDS011;7237;49.500;11.400;2023-12-20T14:51:07;1.60;;;1.50;;